AirNav   Air Wisconsin Up To $57,000 Bonus
 
 540 users online  

64FL District VI Heliport
Miami, Florida, USA

GOING TO MIAMI?


FAA INFORMATION EFFECTIVE 26 JANUARY 2023

Location

FAA Identifier: 64FL
Lat/Long: 25-46-55.1300N 080-22-39.0800W
25-46.918833N 080-22.651333W
25.7819806,-80.3775222
(estimated)
Elevation: 8 ft. / 2 m (estimated)
From city: 9 miles NE of MIAMI, FL
Time zone: UTC -5 (UTC -4 during Daylight Saving Time)
Zip code: 33172

Heliport Operations

Heliport use: Private use. Permission required prior to landing
Activation date: 07/2004
Control tower: no
ARTCC: MIAMI CENTER
FSS: MIAMI FLIGHT SERVICE STATION
Attendance: UNATNDD
Wind indicator: yes
Segmented circle: no

Heliport Communications

WX ASOS at MIA (5 nm E): 119.15 (305-870-0235)
WX ASOS at TMB (9 nm S): 124.0 (305-235-1332)
WX ASOS at OPF (9 nm NE): 125.9 (305-681-4063)
WX ASOS at HWO (15 nm NE): PHONE 954-983-5904
WX AWOS-3 at X51 (19 nm SW): 118.375 (305-247-2791)

Nearby radio navigation aids

VOR radial/distance  VOR name  Freq  Var
DHPr239/1.9DOLPHIN VORTAC113.9004W
VKZr283/12.2VIRGINIA KEY VOR/DME117.1004W
FLLr219/20.9FORT LAUDERDALE VOR/DME114.4006W

Heliport Services

Runway Information

Helipad H1

Dimensions: 20 x 20 ft. / 6 x 6 m
Surface: concrete
Latitude: 25-46.918833N
Longitude: 080-22.651333W
Elevation: 8.0 ft.
Traffic pattern: leftleft

Heliport Ownership and Management from official FAA records

Ownership: Privately-owned
Owner: FLORIDA DOT
1000 NW 111 AVENUE
MIAMI, FL 33172-5800
Phone 305-470-5455
Manager: CINDY CAPDEVILA
1000 NW 111 AVENUE
MIAMI, FL 33172-5800
Phone 305-470-5108

Additional Remarks

FOR CD CTC MIAMI APCH AT 305-869-5432.

Instrument Procedures

There are no published instrument procedures at 64FL.

Some nearby airports with instrument procedures:

KMIA - Miami International Airport (5 nm E)
KTMB - Miami Executive Airport (9 nm S)
KOPF - Miami-Opa Locka Executive Airport (9 nm NE)
KHWO - North Perry Airport (15 nm NE)
KHST - Homestead Air Reserve Base (18 nm S)
X51 - Miami Homestead General Aviation Airport (19 nm SW)
 
Loc | Ops | Rwys | IFR | FBO | Links
Com | Nav | Svcs | Stats | Notes

Reliance Aviation
AirBoss

 
Area around 64FL (District VI Heliport)
 
Road maps at: MapQuest Bing Google
 
Aerial photo
No photo
 
Sectional chart

 
Airport distance calculator
Flying to District VI Heliport? Find the distance to fly.

From to 64FL

Sunrise and sunset
Times for 05-Feb-2023
 Local
(UTC-5)
 Zulu
(UTC)
Morning civil twilight06:4011:40
Sunrise07:0412:04
Sunset18:0723:07
Evening civil twilight18:3123:31

Current date and time
Zulu (UTC)  05-Feb-2023 07:16:30
Local (UTC-5)  05-Feb-2023 02:16:30
 
METAR
KMIA 
3nm E 
050653Z 02009KT 5SM -RA BR SCT015 BKN025 BKN040 21/20 A3018 RMK AO2 SLP219 P0012 T02060200 $
KTMB 
8nm S 
050653Z AUTO 04009KT -RA FEW011 SCT045 OVC060 21/21 A3017 RMK AO2 SLP217 P0014 T02060206
KOPF 
10nm NE 
050704Z AUTO 02007KT 8SM -RA SCT010 BKN026 OVC085 21/19 A3019 RMK AO2 P0000 T02060189
KHWO 
15nm NE 
050653Z AUTO 05008KT 6SM +RA BR BKN008 OVC014 20/19 A3021 RMK AO2 SLP228 P0027 T02000194 $
KHST 
19nm S 
050655Z AUTO 05010KT 5SM +RA BR BKN005 OVC011 21/21 A3014 RMK AO2 SLP210 P0030 T02110209
TAF
KMIA 
3nm E 
050520Z 0506/0612 06012G20KT P6SM VCSH SCT015 BKN040 FM050700 08010KT P6SM VCSH SCT015 BKN025 FM051400 14010KT P6SM VCSH SCT025 BKN040 FM052100 19009KT P6SM VCSH SCT030 BKN045 FM060000 22008KT P6SM SCT030 BKN040
KTMB 
8nm S 
050300Z 0503/0524 07010G17KT P6SM VCSH BKN020 OVC030 FM050700 09009KT P6SM VCSH SCT015 BKN025 FM051400 14009KT P6SM VCSH SCT025 BKN040
KOPF 
10nm NE 
050520Z 0506/0606 07012G20KT P6SM VCSH SCT025 BKN040 FM050700 10010KT P6SM VCSH SCT015 BKN025 FM051400 13010KT P6SM VCSH SCT025 BKN040 FM051700 17010KT P6SM VCSH SCT025 BKN040 FM060000 23008KT P6SM VCSH SCT025 BKN040
KHST 
19nm S 
050400Z 0504/0610 08012G20KT 9999 VCSH BKN020 BKN030 QNH3014INS TEMPO 0504/0508 08015G25KT 4800 -SHRA SCT005 BKN015 BECMG 0509/0510 08012G18KT 9999 VCSH BKN025 BKN035 QNH3010INS BECMG 0514/0515 15010KT 9999 NSW SCT025 BKN040 QNH3006INS BECMG 0523/0524 VRB06KT 9999 SCT025 SCT040 QNH3007INS TX27/0520Z TN19/0510Z
NOTAMs
Click for the latest NOTAMs
NOTAMs are issued by the DoD/FAA and will open in a separate window not controlled by AirNav.

 

 
 

Would you like to see your business listed on this page?

 If your business provides an interesting product or service to pilots, flight crews, aircraft, or users of the District VI Heliport, you should consider listing it here.  To start the listing process, click on the button below
 
Add a business
 

Other Pages about District VI Heliport

Update a link
 
Copyright © AirNav, LLC. All rights reserved. Privacy Policy  Contact